Time;durP1;ratioP1;P1;durP2;ratioP2;P2;SDS_P1;SDS_P2;PMS_P1;PMS_P2;Temp;Humidity;BMP_temperature;BMP_pressure;BME280_temperature;BME280_humidity;BME280_pressure;Samples;Min_cycle;Max_cycle;Signal;HPM_P1;HPM_P2
2022/11/02 00:02:15;;;;;;;;;;;12.70;99.90;;;;;;5092607;28;20071;-47
2022/11/02 00:04:43;;;;;;;7.32;1.60;;;12.70;99.90;;;;;;5091889;28;19925;-49
2022/11/02 00:07:10;;;;;;;9.18;2.13;;;12.70;99.90;;;;;;5091947;28;20067;-48
2022/11/02 00:09:39;;;;;;;8.57;1.83;;;12.70;99.90;;;;;;5091926;28;20035;-50
2022/11/02 00:12:09;;;;;;;9.75;2.42;;;12.70;99.90;;;;;;5091852;28;20390;-49
2022/11/02 00:14:36;;;;;;;5.88;2.13;;;12.70;99.90;;;;;;5090526;28;20075;-50
2022/11/02 00:17:03;;;;;;;8.55;1.48;;;12.70;99.90;;;;;;5091843;28;20502;-49
2022/11/02 00:19:31;;;;;;;6.45;1.70;;;12.70;99.90;;;;;;5091647;28;20126;-49
2022/11/02 00:22:00;;;;;;;;;;;12.60;99.90;;;;;;5092423;28;20063;-49
2022/11/02 00:24:31;;;;;;;9.75;2.03;;;12.60;99.90;;;;;;5091616;28;20022;-49
2022/11/02 00:27:00;;;;;;;5.60;1.50;;;12.50;99.90;;;;;;5091854;28;20040;-50
2022/11/02 00:29:31;;;;;;;8.93;1.60;;;12.40;99.90;;;;;;5091688;28;20040;-49
2022/11/02 00:32:01;;;;;;;4.90;1.27;;;12.30;99.90;;;;;;5091855;28;20043;-49
2022/11/02 00:34:31;;;;;;;8.23;1.50;;;12.30;99.90;;;;;;5091751;28;20059;-47
2022/11/02 00:37:02;;;;;;;7.32;1.40;;;12.20;99.90;;;;;;5051525;28;20060;-48
2022/11/02 00:39:31;;;;;;;9.07;1.55;;;12.10;99.90;;;;;;5051370;28;20041;-47
2022/11/02 00:42:00;;;;;;;5.60;1.67;;;12.10;99.90;;;;;;5051904;28;20037;-49
2022/11/02 00:44:27;;;;;;;4.90;1.80;;;12.00;99.90;;;;;;5051808;28;20155;-48
2022/11/02 00:46:55;;;;;;;7.90;1.33;;;11.90;99.90;;;;;;5055019;28;20037;-50
2022/11/02 00:49:24;;;;;;;6.88;1.20;;;11.80;99.90;;;;;;5055701;28;20565;-45
2022/11/02 00:51:53;;;;;;;4.63;1.50;;;11.80;99.90;;;;;;5055037;28;20056;-48
2022/11/02 00:54:23;;;;;;;4.80;1.55;;;11.80;99.90;;;;;;5055404;28;20088;-51
2022/11/02 00:56:54;;;;;;;6.57;1.63;;;11.70;99.90;;;;;;5055274;28;20045;-49
2022/11/02 00:59:24;;;;;;;5.22;1.27;;;11.70;99.90;;;;;;5055240;28;20047;-48
2022/11/02 01:01:54;;;;;;;6.28;1.08;;;11.70;99.90;;;;;;5055288;28;20380;-47
2022/11/02 01:04:24;;;;;;;7.07;1.30;;;11.60;99.90;;;;;;5053666;28;20131;-52
2022/11/02 01:06:54;;;;;;;5.07;1.35;;;11.60;99.90;;;;;;5055099;28;20479;-48
2022/11/02 01:09:23;;;;;;;7.00;1.42;;;11.60;99.90;;;;;;5054956;28;20037;-50
2022/11/02 01:11:51;;;;;;;2.67;0.88;;;11.60;99.90;;;;;;5054568;28;20045;-50
2022/11/02 01:14:17;;;;;;;6.00;1.48;;;11.60;99.90;;;;;;5053667;28;20136;-50
2022/11/02 01:16:46;;;;;;;2.80;0.80;;;11.50;99.90;;;;;;5054888;28;20033;-47
2022/11/02 01:19:17;;;;;;;3.60;1.17;;;11.50;99.90;;;;;;5054591;28;20049;-46
2022/11/02 01:21:46;;;;;;;4.13;1.20;;;11.40;99.90;;;;;;5054832;28;20490;-50
2022/11/02 01:24:15;;;;;;;3.42;1.23;;;11.50;99.90;;;;;;5054831;28;20040;-51
2022/11/02 01:26:46;;;;;;;4.82;1.73;;;11.40;99.90;;;;;;5054666;28;20051;-49
2022/11/02 01:29:15;;;;;;;3.70;1.13;;;11.40;99.90;;;;;;5054733;28;20171;-50
2022/11/02 01:31:44;;;;;;;4.93;1.00;;;11.40;99.90;;;;;;5054686;28;20471;-50
2022/11/02 01:34:11;;;;;;;3.00;0.88;;;11.30;99.90;;;;;;5054698;28;20041;-48
2022/11/02 01:36:40;;;;;;;3.78;1.00;;;11.30;99.90;;;;;;5090096;28;20060;-47
2022/11/02 01:39:08;;;;;;;4.40;0.90;;;11.30;99.90;;;;;;5094848;28;20124;-49
2022/11/02 01:41:37;;;;;;;3.90;0.68;;;11.20;99.90;;;;;;5094571;28;20043;-50
2022/11/02 01:44:25;;;;;;;1.52;0.70;;;11.20;99.90;;;;;;5093018;28;20505;-51
2022/11/02 01:46:58;;;;;;;6.75;0.93;;;11.20;99.90;;;;;;5094619;28;20036;-51
2022/11/02 01:49:32;;;;;;;2.58;1.00;;;11.10;99.90;;;;;;5093246;28;20032;-49
2022/11/02 01:52:06;;;;;;;3.85;2.15;;;11.10;99.90;;;;;;5094408;28;20039;-48
2022/11/02 01:54:51;;;;;;;3.13;0.90;;;11.20;99.90;;;;;;5094265;28;20043;-47
2022/11/02 01:57:21;;;;;;;2.70;0.82;;;11.10;99.90;;;;;;5093636;28;20075;-51
2022/11/02 02:00:05;;;;;;;5.75;1.27;;;11.20;99.90;;;;;;5094053;28;20133;-49
2022/11/02 02:02:36;;;;;;;4.03;0.90;;;11.20;99.90;;;;;;5094048;28;20040;-47
2022/11/02 02:05:08;;;;;;;8.60;1.20;;;11.20;99.90;;;;;;5094051;28;20551;-54
2022/11/02 02:07:37;;;;;;;4.30;1.20;;;11.20;99.90;;;;;;5094045;28;20043;-50
2022/11/02 02:10:07;;;;;;;4.20;0.90;;;11.10;99.90;;;;;;5094116;28;20047;-46
2022/11/02 02:12:35;;;;;;;;;;;11.10;99.90;;;;;;5094559;28;20047;-47
2022/11/02 02:15:06;;;;;;;2.90;0.95;;;11.10;99.90;;;;;;5094141;28;19927;-46
2022/11/02 02:18:14;;;;;;;4.18;1.10;;;11.00;99.90;;;;;;5094125;28;20039;-50
2022/11/02 02:21:21;;;;;;;4.32;1.02;;;11.10;99.90;;;;;;5080301;28;20477;-49
2022/11/02 02:24:20;;;;;;;3.75;1.00;;;11.20;99.90;;;;;;5093706;28;20032;-50
2022/11/02 02:27:11;;;;;;;10.82;2.08;;;11.10;99.90;;;;;;5093706;28;20077;-50
2022/11/02 02:29:48;;;;;;;;;;;11.20;99.90;;;;;;5094147;28;20107;-49
2022/11/02 02:32:45;;;;;;;3.88;1.27;;;11.10;99.90;;;;;;5093448;28;19920;-49
2022/11/02 02:35:21;;;;;;;4.72;1.40;;;11.00;99.90;;;;;;5011052;28;20054;-50
2022/11/02 02:37:59;;;;;;;7.68;1.48;;;11.00;99.90;;;;;;5011637;28;20447;-50
2022/11/02 02:40:36;;;;;;;5.40;1.45;;;11.00;99.90;;;;;;5011225;28;20145;-48
2022/11/02 02:43:14;;;;;;;9.15;2.13;;;11.00;99.90;;;;;;5011233;28;20069;-47
2022/11/02 02:45:46;;;;;;;5.65;1.70;;;11.00;99.90;;;;;;5011120;28;20136;-50
2022/11/02 02:48:19;;;;;;;3.83;1.50;;;11.10;99.90;;;;;;5011118;28;20037;-47
2022/11/02 02:50:55;;;;;;;7.13;1.90;;;11.00;99.90;;;;;;5011126;28;20052;-51
2022/11/02 02:53:46;;;;;;;6.68;1.75;;;11.00;99.90;;;;;;5011221;28;20053;-48
2022/11/02 02:56:18;;;;;;;9.20;2.28;;;11.00;99.90;;;;;;5011293;28;20133;-48
2022/11/02 02:58:55;;;;;;;7.95;2.17;;;11.10;99.90;;;;;;5010990;28;20044;-49
2022/11/02 03:01:23;;;;;;;6.70;1.90;;;11.10;99.90;;;;;;5011056;28;20045;-48
2022/11/02 03:03:51;;;;;;;7.57;1.80;;;11.10;99.90;;;;;;5010771;28;20049;-48
2022/11/02 03:06:25;;;;;;;6.15;1.38;;;11.20;99.90;;;;;;5010681;28;20543;-48
2022/11/02 03:09:17;;;;;;;10.55;1.85;;;11.10;99.90;;;;;;5010018;28;20042;-47
2022/11/02 03:11:58;;;;;;;5.85;1.52;;;11.10;99.90;;;;;;5025862;28;20483;-48
2022/11/02 03:14:58;;;;;;;5.07;0.95;;;11.10;99.90;;;;;;5093072;28;20405;-50
2022/11/02 03:17:33;;;;;;;6.43;2.13;;;11.10;99.90;;;;;;5093010;28;20047;-49
2022/11/02 03:20:42;;;;;;;5.97;0.93;;;11.10;99.90;;;;;;5092600;28;20036;-50
2022/11/02 03:23:25;;;;;;;6.32;1.50;;;11.10;99.90;;;;;;5092530;28;20036;-51
2022/11/02 03:26:10;;;;;;;8.60;1.60;;;11.00;99.90;;;;;;5090866;28;20356;-49
2022/11/02 03:29:10;;;;;;;2.15;0.80;;;11.00;99.90;;;;;;5092548;28;20040;-48
2022/11/02 03:31:46;;;;;;;2.50;0.80;;;11.00;99.90;;;;;;5092388;28;20121;-50
2022/11/02 03:34:34;;;;;;;3.92;1.00;;;11.00;99.90;;;;;;5092432;28;20058;-47
2022/11/02 03:37:24;;;;;;;3.40;0.82;;;11.00;99.90;;;;;;5052073;28;20045;-48
2022/11/02 03:40:00;;;;;;;4.95;1.10;;;11.00;99.90;;;;;;5051914;28;20481;-48
2022/11/02 03:42:32;;;;;;;8.68;2.42;;;11.00;99.90;;;;;;5052131;28;20079;-49
2022/11/02 03:45:12;;;;;;;5.55;0.93;;;11.00;99.90;;;;;;5051974;28;20041;-50
2022/11/02 03:47:49;;;;;;;3.90;0.88;;;10.90;99.90;;;;;;5051246;28;20112;-50
2022/11/02 03:50:21;;;;;;;5.78;1.02;;;10.90;99.90;;;;;;5052358;28;20037;-47
2022/11/02 03:53:03;;;;;;;5.93;1.27;;;10.90;99.90;;;;;;5051761;28;20033;-47
2022/11/02 03:55:35;;;;;;;3.17;0.90;;;10.90;99.90;;;;;;5051936;28;20041;-46
2022/11/02 03:58:08;;;;;;;7.20;1.45;;;10.90;99.90;;;;;;5052016;28;20037;-46
2022/11/02 04:00:38;;;;;;;5.20;1.15;;;10.90;99.90;;;;;;5051934;28;20079;-50
2022/11/02 04:03:10;;;;;;;6.63;1.10;;;10.90;99.90;;;;;;5051694;28;20041;-49
2022/11/02 04:05:41;;;;;;;5.57;1.10;;;10.80;99.90;;;;;;5051628;28;20037;-46
2022/11/02 04:08:19;;;;;;;5.25;1.30;;;10.80;99.90;;;;;;5051697;28;20037;-49
2022/11/02 04:16:22;;;;;;;10.88;1.60;;;10.80;99.90;;;;;;5051435;28;20049;-49
2022/11/02 04:21:37;;;;;;;6.13;1.23;;;10.80;99.90;;;;;;5051588;28;20187;-49
2022/11/02 04:26:50;;;;;;;9.55;1.70;;;10.80;99.90;;;;;;5051206;28;19931;-50
2022/11/02 04:29:20;;;;;;;6.28;1.50;;;10.90;99.90;;;;;;5051187;28;20363;-49
2022/11/02 04:31:48;;;;;;;9.32;1.77;;;10.90;99.90;;;;;;5051511;28;20123;-49
2022/11/02 04:34:14;;;;;;;8.40;1.48;;;10.90;99.90;;;;;;5051660;28;20128;-47
2022/11/02 04:36:43;;;;;;;6.80;1.58;;;10.90;99.90;;;;;;5087119;28;20067;-47
2022/11/02 04:39:14;;;;;;;7.25;1.30;;;11.00;99.90;;;;;;5091560;28;20066;-47
2022/11/02 04:41:42;;;;;;;9.10;1.33;;;11.00;99.90;;;;;;5091574;28;20047;-48
2022/11/02 04:44:13;;;;;;;8.82;2.92;;;10.90;99.90;;;;;;5091696;28;20044;-49
2022/11/02 04:46:42;;;;;;;14.02;2.13;;;10.90;99.90;;;;;;5091734;28;20159;-49
2022/11/02 04:49:09;;;;;;;;;;;10.90;99.90;;;;;;5091974;28;20036;-47
2022/11/02 04:51:39;;;;;;;6.03;1.52;;;10.80;99.90;;;;;;5091134;28;19959;-49
2022/11/02 04:54:05;;;;;;;9.10;2.40;;;10.80;99.90;;;;;;5091259;28;20547;-47
2022/11/02 04:56:34;;;;;;;7.60;1.60;;;10.80;99.90;;;;;;5091416;28;20036;-47
2022/11/02 04:59:02;;;;;;;13.77;1.60;;;10.80;99.90;;;;;;5091356;28;20127;-49
2022/11/02 05:01:32;;;;;;;7.50;1.33;;;10.80;99.90;;;;;;5091308;28;20562;-49
2022/11/02 05:03:59;;;;;;;;;;;10.80;99.90;;;;;;5091683;28;20043;-46
2022/11/02 05:06:28;;;;;;;10.02;2.88;;;10.80;99.90;;;;;;5089725;28;20265;-50
2022/11/02 05:08:54;;;;;;;8.50;2.13;;;10.70;99.90;;;;;;5091367;28;20039;-48
2022/11/02 05:11:23;;;;;;;12.63;1.67;;;10.70;99.90;;;;;;5091348;28;20032;-50
2022/11/02 05:13:54;;;;;;;12.98;1.70;;;10.70;99.90;;;;;;5091124;28;20189;-51
2022/11/02 05:16:22;;;;;;;5.20;1.58;;;10.70;99.90;;;;;;5091319;28;20086;-48
2022/11/02 05:18:53;;;;;;;10.40;2.65;;;10.70;99.90;;;;;;5091526;28;20040;-49
2022/11/02 05:21:22;;;;;;;11.65;1.90;;;10.70;99.90;;;;;;5091117;28;20059;-48
2022/11/02 05:23:52;;;;;;;7.72;2.13;;;10.70;99.90;;;;;;5091062;28;20044;-50
2022/11/02 05:26:21;;;;;;;9.95;1.95;;;10.70;99.90;;;;;;5091359;28;20093;-48
2022/11/02 05:28:51;;;;;;;10.27;2.22;;;10.80;99.90;;;;;;5091163;28;20036;-51
2022/11/02 05:31:23;;;;;;;12.40;1.95;;;10.70;99.90;;;;;;5091396;28;20040;-48
2022/11/02 05:33:51;;;;;;;9.00;1.67;;;10.70;99.90;;;;;;5094618;28;20039;-49
2022/11/02 05:36:19;;;;;;;;;;;10.70;99.90;;;;;;5095004;28;20060;-50
2022/11/02 05:38:50;;;;;;;8.23;2.22;;;10.70;99.90;;;;;;5094769;28;19915;-49
2022/11/02 05:41:18;;;;;;;11.13;2.08;;;10.70;99.90;;;;;;5094221;28;20085;-50
2022/11/02 05:43:45;;;;;;;11.02;2.22;;;10.70;99.90;;;;;;5094445;28;20048;-47
2022/11/02 05:46:14;;;;;;;9.38;2.45;;;10.70;99.90;;;;;;5094773;28;20039;-49
2022/11/02 05:48:41;;;;;;;;;;;10.70;99.90;;;;;;5092600;28;20051;-51
2022/11/02 05:51:09;;;;;;;8.43;2.00;;;10.80;99.90;;;;;;5094495;28;19923;-47
2022/11/02 05:53:37;;;;;;;9.40;2.20;;;10.80;99.90;;;;;;5094380;28;20497;-51
2022/11/02 05:56:06;;;;;;;12.77;2.47;;;10.70;99.90;;;;;;5094286;28;20038;-47
2022/11/02 05:58:34;;;;;;;;;;;10.70;99.90;;;;;;5095085;28;20047;-47
2022/11/02 06:01:04;;;;;;;8.90;2.15;;;10.80;99.90;;;;;;5094482;28;19963;-50
2022/11/02 06:03:33;;;;;;;12.98;2.53;;;10.70;99.90;;;;;;5094291;28;20035;-51
2022/11/02 06:06:01;;;;;;;10.30;2.28;;;10.60;99.90;;;;;;5094130;28;20036;-50
2022/11/02 06:08:32;;;;;;;10.48;1.88;;;10.60;99.90;;;;;;5094234;28;20032;-50
2022/11/02 06:11:04;;;;;;;10.27;2.55;;;10.70;99.90;;;;;;5094421;28;20032;-47
2022/11/02 06:13:30;;;;;;;14.23;2.45;;;10.60;99.90;;;;;;5094136;28;20097;-47
2022/11/02 06:16:00;;;;;;;12.25;2.97;;;10.70;99.90;;;;;;5094231;28;20040;-49
2022/11/02 06:18:27;;;;;;;8.25;2.13;;;10.70;99.90;;;;;;5093762;28;20028;-48
2022/11/02 06:20:56;;;;;;;16.65;3.58;;;10.70;99.90;;;;;;5093838;28;20101;-49
2022/11/02 06:23:24;;;;;;;11.27;2.15;;;10.70;99.90;;;;;;5094150;28;20072;-48
2022/11/02 06:25:51;;;;;;;10.52;2.35;;;10.70;99.90;;;;;;5093949;28;20037;-48
2022/11/02 06:28:18;;;;;;;9.25;1.80;;;10.70;99.90;;;;;;5093992;28;20039;-49
2022/11/02 06:30:45;;;;;;;12.13;2.83;;;10.70;99.90;;;;;;5093861;28;20416;-50
2022/11/02 06:33:12;;;;;;;12.98;2.65;;;10.70;99.90;;;;;;5093450;28;20097;-46
2022/11/02 06:35:38;;;;;;;18.13;3.40;;;10.70;99.90;;;;;;5093433;28;20052;-45
2022/11/02 06:38:05;;;;;;;17.08;3.67;;;10.80;99.90;;;;;;5093406;28;20086;-51
2022/11/02 06:40:32;;;;;;;18.48;3.00;;;10.80;99.90;;;;;;5093634;28;20040;-50
2022/11/02 06:42:58;;;;;;;9.25;1.88;;;10.80;99.90;;;;;;5093493;28;20054;-49
2022/11/02 06:45:25;;;;;;;11.07;1.98;;;10.80;99.90;;;;;;5091534;28;20316;-47
2022/11/02 06:47:52;;;;;;;11.20;2.20;;;10.80;99.90;;;;;;5093249;28;20032;-48
2022/11/02 06:50:21;;;;;;;10.18;2.83;;;10.90;99.90;;;;;;5091237;28;20048;-48
2022/11/02 06:52:48;;;;;;;15.20;2.30;;;10.80;99.90;;;;;;5093485;28;20066;-49
2022/11/02 06:55:16;;;;;;;15.05;2.58;;;10.90;99.90;;;;;;5093137;28;20046;-48
2022/11/02 06:57:44;;;;;;;10.43;2.08;;;10.70;99.90;;;;;;5093158;28;20036;-48
2022/11/02 07:00:12;;;;;;;;;;;10.90;99.90;;;;;;5093205;28;20047;-48
2022/11/02 07:02:39;;;;;;;8.90;2.05;;;10.90;99.90;;;;;;5093010;28;19926;-48
2022/11/02 07:05:07;;;;;;;13.07;2.15;;;10.90;99.90;;;;;;5092870;28;20066;-49
2022/11/02 07:07:34;;;;;;;14.20;2.95;;;10.90;99.90;;;;;;5089775;28;20124;-47
2022/11/02 07:10:01;;;;;;;12.25;2.20;;;10.90;99.90;;;;;;5074384;28;20517;-49
2022/11/02 07:12:30;;;;;;;15.65;3.63;;;11.00;99.90;;;;;;5072524;28;20041;-50
2022/11/02 07:14:58;;;;;;;12.95;2.67;;;10.90;99.90;;;;;;5072488;28;20047;-48
2022/11/02 07:17:27;;;;;;;13.57;2.30;;;10.90;99.90;;;;;;5076431;28;20128;-50
2022/11/02 07:19:53;;;;;;;17.52;3.45;;;11.00;99.90;;;;;;5090924;28;20042;-50
2022/11/02 07:22:25;;;;;;;11.63;2.25;;;11.00;99.90;;;;;;5090201;28;20044;-48
2022/11/02 07:24:55;;;;;;;17.65;2.70;;;11.00;99.90;;;;;;5092638;28;20105;-49
2022/11/02 07:27:24;;;;;;;10.23;1.80;;;11.00;99.90;;;;;;5092732;28;20134;-48
2022/11/02 07:29:51;;;;;;;;;;;11.00;99.90;;;;;;5091711;28;20050;-46
2022/11/02 07:32:20;;;;;;;15.23;2.95;;;11.00;99.90;;;;;;5092525;28;20322;-49
2022/11/02 07:34:47;;;;;;;6.53;1.60;;;11.00;99.90;;;;;;5091875;28;20036;-47
2022/11/02 07:37:16;;;;;;;8.48;1.80;;;11.00;99.90;;;;;;5092330;28;20149;-49
2022/11/02 07:39:47;;;;;;;12.82;2.08;;;10.90;99.90;;;;;;5092400;28;20044;-50
2022/11/02 07:42:16;;;;;;;7.68;1.60;;;10.90;99.90;;;;;;5092151;28;20126;-51
2022/11/02 07:44:44;;;;;;;9.38;1.65;;;10.80;99.90;;;;;;5092524;28;20044;-48
2022/11/02 07:47:15;;;;;;;8.23;1.42;;;10.80;99.90;;;;;;5092324;28;20040;-50
2022/11/02 07:49:44;;;;;;;10.77;1.58;;;10.80;99.90;;;;;;5092383;28;20227;-50
2022/11/02 07:52:13;;;;;;;8.43;1.63;;;10.80;99.90;;;;;;5090591;28;20521;-46
2022/11/02 07:54:41;;;;;;;10.13;1.85;;;10.80;99.90;;;;;;5091746;28;20318;-50
2022/11/02 07:57:11;;;;;;;4.30;1.20;;;10.80;99.90;;;;;;5092264;28;20381;-48
2022/11/02 07:59:38;;;;;;;9.32;1.83;;;10.80;99.90;;;;;;5092263;28;20101;-46
2022/11/02 08:02:08;;;;;;;10.02;1.40;;;10.80;99.90;;;;;;5091801;28;20071;-49
2022/11/02 08:04:36;;;;;;;4.78;1.35;;;10.80;99.90;;;;;;5091868;28;20079;-46
2022/11/02 08:07:03;;;;;;;8.00;1.55;;;10.80;99.90;;;;;;5092126;28;20123;-47
2022/11/02 08:09:37;;;;;;;6.45;0.90;;;10.80;99.90;;;;;;5091875;28;20104;-50
2022/11/02 08:12:16;;;;;;;8.10;1.85;;;10.90;99.90;;;;;;5092060;28;20036;-46
2022/11/02 08:14:49;;;;;;;6.65;1.50;;;10.90;99.90;;;;;;5091979;28;20040;-47
2022/11/02 08:17:23;;;;;;;6.15;1.58;;;10.90;99.90;;;;;;5091854;28;20075;-49
2022/11/02 08:19:53;;;;;;;4.28;1.25;;;11.10;99.90;;;;;;5091967;28;20036;-46
2022/11/02 08:22:27;;;;;;;8.18;1.15;;;11.20;99.90;;;;;;5091794;28;20379;-51
2022/11/02 08:24:55;;;;;;;8.07;1.75;;;11.40;99.90;;;;;;5091835;28;20055;-49
2022/11/02 08:27:22;;;;;;;5.47;1.13;;;11.70;99.90;;;;;;5091080;28;20165;-50
2022/11/02 08:29:48;;;;;;;7.90;2.10;;;11.80;99.90;;;;;;5091721;28;20448;-48
2022/11/02 08:32:17;;;;;;;9.95;1.45;;;11.80;99.90;;;;;;5091623;28;20040;-48
2022/11/02 08:34:46;;;;;;;12.27;2.17;;;11.80;99.90;;;;;;5091617;28;20040;-47
2022/11/02 08:37:14;;;;;;;7.00;1.23;;;11.90;99.90;;;;;;5091249;28;20517;-49
2022/11/02 08:39:41;;;;;;;8.70;1.40;;;12.00;99.90;;;;;;5091732;28;20068;-47
2022/11/02 08:42:09;;;;;;;7.63;1.05;;;12.10;99.90;;;;;;5091636;28;20101;-46
2022/11/02 08:44:36;;;;;;;9.20;1.20;;;12.20;99.90;;;;;;5091563;28;20048;-48
2022/11/02 08:47:04;;;;;;;5.40;1.08;;;12.20;99.90;;;;;;5091129;28;20402;-50
2022/11/02 08:49:34;;;;;;;9.88;1.38;;;12.20;99.90;;;;;;5089713;28;20107;-47
2022/11/02 08:52:05;;;;;;;6.93;1.85;;;12.40;99.90;;;;;;5090461;28;20031;-47
2022/11/02 08:54:34;;;;;;;8.02;1.48;;;12.40;99.90;;;;;;5090976;28;20532;-50
2022/11/02 08:57:03;;;;;;;7.38;2.20;;;12.40;99.90;;;;;;5091270;28;20048;-47
2022/11/02 08:59:34;;;;;;;10.00;1.63;;;12.50;99.90;;;;;;5091389;28;20127;-49
2022/11/02 09:02:06;;;;;;;5.60;1.88;;;12.50;99.90;;;;;;5091122;28;20123;-47
2022/11/02 09:04:37;;;;;;;8.63;1.90;;;12.60;99.90;;;;;;5091706;28;20032;-46
2022/11/02 09:07:07;;;;;;;9.93;1.37;;;12.60;99.90;;;;;;5093545;28;20814;-50
2022/11/02 09:09:37;;;;;;;8.35;1.35;;;12.70;99.90;;;;;;5095182;28;20040;-50
2022/11/02 09:12:03;;;;;;;12.50;2.33;;;12.70;99.90;;;;;;5095264;28;20043;-50
2022/11/02 09:14:29;;;;;;;7.53;1.42;;;12.80;99.90;;;;;;5095383;28;20109;-48
2022/11/02 09:16:55;;;;;;;8.90;1.75;;;12.80;99.90;;;;;;5095385;28;20036;-50
2022/11/02 09:19:20;;;;;;;10.05;1.98;;;12.80;99.90;;;;;;5094071;28;20047;-47
2022/11/02 09:21:48;;;;;;;10.52;2.00;;;12.90;99.90;;;;;;5093796;28;20085;-49
2022/11/02 09:24:14;;;;;;;8.82;1.17;;;12.90;99.90;;;;;;5094644;28;20051;-48
2022/11/02 09:26:40;;;;;;;9.35;1.60;;;12.90;99.90;;;;;;5095283;28;20040;-47
2022/11/02 09:29:05;;;;;;;13.77;2.45;;;13.00;99.90;;;;;;5095414;28;20146;-47
2022/11/02 09:31:31;;;;;;;11.40;2.05;;;13.10;99.90;;;;;;5095100;28;20040;-52
2022/11/02 09:33:57;;;;;;;9.68;1.73;;;13.00;99.90;;;;;;5094997;28;20119;-50
2022/11/02 09:36:22;;;;;;;9.52;2.10;;;13.10;99.90;;;;;;5094710;28;20047;-48
2022/11/02 09:38:48;;;;;;;7.00;2.10;;;13.10;99.90;;;;;;5095261;28;20051;-50
2022/11/02 09:41:20;;;;;;;13.15;2.00;;;13.20;99.90;;;;;;5094672;28;20051;-50
2022/11/02 09:43:52;;;;;;;10.70;2.33;;;13.20;99.90;;;;;;5094834;28;20118;-51
2022/11/02 09:46:25;;;;;;;16.83;3.83;;;13.20;99.90;;;;;;5094593;28;20489;-47
2022/11/02 09:48:52;;;;;;;12.80;2.67;;;13.30;99.90;;;;;;5093551;28;20028;-51
2022/11/02 09:51:41;;;;;;;11.85;1.75;;;13.30;99.90;;;;;;5093047;28;20032;-49
2022/11/02 09:54:42;;;;;;;17.20;2.50;;;13.30;99.90;;;;;;5093287;28;20056;-45
2022/11/02 09:57:20;;;;;;;9.55;1.88;;;13.20;99.90;;;;;;5094409;28;20040;-47
2022/11/02 09:59:46;;;;;;;15.95;2.08;;;13.30;99.90;;;;;;5094255;28;20069;-48
2022/11/02 10:02:33;;;;;;;18.42;3.75;;;13.20;99.90;;;;;;5094505;28;20036;-50
2022/11/02 10:05:07;;;;;;;9.35;2.17;;;13.10;99.90;;;;;;5094365;28;20123;-50
2022/11/02 10:07:56;;;;;;;8.20;2.00;;;13.10;99.90;;;;;;5094245;28;20032;-47
2022/11/02 10:10:36;;;;;;;10.77;2.03;;;13.10;99.90;;;;;;5094120;28;20040;-49
2022/11/02 10:13:14;;;;;;;7.68;2.00;;;13.10;99.90;;;;;;5094092;28;20040;-50
2022/11/02 10:15:48;;;;;;;11.20;2.10;;;12.90;99.90;;;;;;5094296;28;20056;-47
2022/11/02 10:18:25;;;;;;;9.15;2.28;;;12.80;99.90;;;;;;5093047;28;20035;-46
2022/11/02 10:20:56;;;;;;;11.82;2.42;;;12.70;99.90;;;;;;5092766;28;20040;-47
2022/11/02 10:23:52;;;;;;;5.80;1.63;;;12.50;99.90;;;;;;5092959;28;20132;-50
2022/11/02 10:26:23;;;;;;;12.95;1.80;;;12.50;99.90;;;;;;5011783;28;20058;-48
2022/11/02 10:28:55;;;;;;;10.00;1.83;;;12.40;99.90;;;;;;5011723;28;20112;-51
2022/11/02 10:31:29;;;;;;;7.35;1.67;;;12.40;99.90;;;;;;5011671;28;20116;-45
2022/11/02 10:33:58;;;;;;;15.02;2.42;;;12.40;99.90;;;;;;5011632;28;20073;-49
2022/11/02 10:36:53;;;;;;;10.13;1.88;;;12.60;99.90;;;;;;5011392;28;20547;-51
2022/11/02 10:39:25;;;;;;;10.65;2.00;;;12.70;99.90;;;;;;5011446;28;20045;-48
2022/11/02 10:42:11;;;;;;;9.95;2.28;;;12.90;99.90;;;;;;5011484;28;20121;-50
2022/11/02 10:45:09;;;;;;;10.68;1.90;;;13.00;99.90;;;;;;5011457;28;20049;-46
2022/11/02 10:47:45;;;;;;;9.23;2.25;;;13.00;99.90;;;;;;5010700;28;20034;-47
2022/11/02 10:50:35;;;;;;;8.80;1.92;;;13.10;99.90;;;;;;5010273;28;20046;-50
2022/11/02 10:53:09;;;;;;;7.30;1.73;;;13.30;99.90;;;;;;5010318;28;20042;-50
2022/11/02 10:55:59;;;;;;;10.05;1.65;;;13.50;99.90;;;;;;5010835;28;20111;-48
2022/11/02 10:58:32;;;;;;;11.98;2.10;;;13.70;99.90;;;;;;5011031;28;20037;-46
2022/11/02 11:01:08;;;;;;;7.28;1.80;;;13.90;99.90;;;;;;5011052;28;20515;-47
2022/11/02 11:04:06;;;;;;;10.50;2.30;;;14.00;99.90;;;;;;5065972;28;20047;-50
2022/11/02 11:06:42;;;;;;;13.00;1.90;;;14.10;99.90;;;;;;5092693;28;20122;-49
2022/11/02 11:09:22;;;;;;;10.80;2.28;;;14.10;99.90;;;;;;5093272;28;20118;-48
2022/11/02 11:12:00;;;;;;;12.73;2.13;;;14.10;99.90;;;;;;5093195;28;20035;-49
2022/11/02 11:14:45;;;;;;;7.43;1.45;;;13.90;99.90;;;;;;5092907;28;20043;-48
2022/11/02 11:17:27;;;;;;;9.02;1.77;;;14.00;99.90;;;;;;5092665;28;20036;-47
2022/11/02 11:19:59;;;;;;;9.35;1.50;;;14.20;99.90;;;;;;5091695;28;20039;-49
2022/11/02 11:22:39;;;;;;;7.53;1.58;;;14.40;99.90;;;;;;5091655;28;20028;-46
2022/11/02 11:25:25;;;;;;;10.43;1.83;;;14.50;99.90;;;;;;5092679;28;20080;-51
2022/11/02 11:28:00;;;;;;;9.55;1.65;;;14.60;99.90;;;;;;5092694;28;20481;-47
2022/11/02 11:30:33;;;;;;;10.20;1.70;;;14.80;99.90;;;;;;5091876;28;20051;-49
2022/11/02 11:33:05;;;;;;;10.90;2.53;;;14.90;99.90;;;;;;5092750;28;20706;-48
2022/11/02 11:35:37;;;;;;;7.63;1.60;;;15.00;99.90;;;;;;5091966;28;20059;-50
2022/11/02 11:38:09;;;;;;;9.45;1.60;;;15.20;99.90;;;;;;5092181;28;20040;-50
2022/11/02 11:40:43;;;;;;;9.43;1.30;;;15.20;99.90;;;;;;5092324;28;20043;-49
2022/11/02 11:43:16;;;;;;;14.02;2.70;;;15.20;99.90;;;;;;5092902;28;20039;-50
2022/11/02 11:46:04;;;;;;;6.03;1.45;;;15.00;99.90;;;;;;5092224;28;20036;-48
2022/11/02 11:48:45;;;;;;;9.38;1.90;;;15.10;99.90;;;;;;5092098;28;20028;-49
2022/11/02 11:51:40;;;;;;;10.05;2.35;;;15.10;99.90;;;;;;5092620;28;20223;-49
2022/11/02 11:54:23;;;;;;;9.90;1.52;;;14.90;99.90;;;;;;5092025;28;20036;-50
2022/11/02 11:57:17;;;;;;;9.65;1.70;;;15.00;99.90;;;;;;5092439;28;20046;-48
2022/11/02 11:59:48;;;;;;;4.57;1.52;;;15.00;99.90;;;;;;5092098;28;20036;-51
2022/11/02 12:02:32;;;;;;;9.10;1.30;;;15.10;99.90;;;;;;5092078;28;20063;-51
2022/11/02 12:05:14;;;;;;;9.90;1.55;;;15.20;99.90;;;;;;5091923;28;20482;-50
2022/11/02 12:07:50;;;;;;;11.85;1.58;;;15.20;99.90;;;;;;5092162;28;20052;-46
2022/11/02 12:10:37;;;;;;;6.55;1.67;;;15.30;99.90;;;;;;5091966;28;20044;-49
2022/11/02 12:13:28;;;;;;;10.73;1.63;;;15.20;99.90;;;;;;5091988;28;20066;-48
2022/11/02 12:16:13;;;;;;;7.07;1.48;;;15.20;99.90;;;;;;5091708;28;20040;-50
2022/11/02 12:19:11;;;;;;;7.30;1.63;;;15.00;99.90;;;;;;5091809;28;20050;-47
2022/11/02 12:22:09;;;;;;;8.60;1.83;;;15.00;99.90;;;;;;5091981;28;20058;-48
2022/11/02 12:25:18;;;;;;;6.97;1.65;;;15.10;99.90;;;;;;5091963;28;20294;-51
2022/11/02 12:28:07;;;;;;;6.35;1.35;;;15.20;99.90;;;;;;5009511;28;20077;-46
2022/11/02 12:30:42;;;;;;;14.93;2.72;;;15.10;99.90;;;;;;5009607;28;20121;-49
2022/11/02 12:33:35;;;;;;;15.20;2.65;;;15.10;99.90;;;;;;5009519;28;20158;-49
2022/11/02 12:36:31;;;;;;;6.30;1.35;;;14.90;99.90;;;;;;5009529;28;20443;-46
2022/11/02 12:39:53;;;;;;;8.55;1.60;;;15.00;99.90;;;;;;4951361;29;20043;-48
2022/11/02 12:42:22;;;;;;;10.95;1.70;;;15.20;99.90;;;;;;4954621;29;20059;-46
2022/11/02 12:45:03;;;;;;;5.88;1.55;;;15.10;99.90;;;;;;4938929;29;20454;-48
2022/11/02 12:48:01;;;;;;;7.03;1.85;;;15.30;99.90;;;;;;4955025;29;20079;-51
2022/11/02 12:51:02;;;;;;;10.75;1.42;;;15.30;99.90;;;;;;4955052;29;20047;-47
2022/11/02 12:53:57;;;;;;;10.52;2.03;;;15.30;99.90;;;;;;4916796;29;20589;-48
2022/11/02 12:56:48;;;;;;;11.55;1.92;;;15.50;99.90;;;;;;4916920;29;20055;-48
2022/11/02 12:59:26;;;;;;;10.00;1.77;;;15.50;99.90;;;;;;4916938;29;20090;-49
2022/11/02 13:02:05;;;;;;;12.25;2.08;;;15.40;99.90;;;;;;4963858;28;20061;-51
2022/11/02 13:05:03;;;;;;;10.20;1.80;;;15.30;99.90;;;;;;4993653;28;20558;-47
2022/11/02 13:07:46;;;;;;;11.40;1.92;;;15.10;99.90;;;;;;4977737;28;20074;-49
2022/11/02 13:10:38;;;;;;;10.48;1.60;;;15.10;99.90;;;;;;4993195;28;20074;-49
2022/11/02 13:13:20;;;;;;;10.13;2.17;;;15.00;99.90;;;;;;4993870;28;20118;-47
2022/11/02 13:15:51;;;;;;;8.35;1.80;;;15.10;99.90;;;;;;5010364;28;20065;-49
2022/11/02 13:18:36;;;;;;;6.80;1.50;;;15.20;99.90;;;;;;5032840;28;20056;-48
2022/11/02 13:21:19;;;;;;;8.20;1.30;;;15.30;99.90;;;;;;5032565;28;20041;-49
2022/11/02 13:23:57;;;;;;;8.98;1.88;;;15.30;99.90;;;;;;5031770;28;20052;-47
2022/11/02 13:26:38;;;;;;;8.00;1.50;;;15.10;99.90;;;;;;5031495;28;20053;-50
2022/11/02 13:29:27;;;;;;;9.00;1.60;;;14.80;99.90;;;;;;5032448;28;20056;-50
2022/11/02 13:32:29;;;;;;;8.73;1.83;;;14.60;99.90;;;;;;5094586;28;20028;-50
2022/11/02 13:35:00;;;;;;;12.75;2.40;;;14.50;99.90;;;;;;5094998;28;20067;-49